EBH weather

El Bayadh Airport
El Bayadh, El Bayadh Province, Algeria

Public forecast

Using degrees Celsius for public forecast. Weather courtesy of forecast.io.

Current aviation weather report (METAR) for El Bayadh Airport

Retrieved 2020/04/08 09:00 UTC (19 minutes ago):

DAOY 080900Z 13012KT 9999 FEW030 17/02 Q1023

Aviation forecast (TAF) for El Bayadh Airport

Forecast is more than 12 hours old.

Retrieved 2019/12/09 12:00 UTC (4 months ago):

TAF DAOY 091100Z 0912/0921 34018KT 9000 FEW010 TEMPO 0919/0921 4000 BR BKN010